Time;durP1;ratioP1;P1;durP2;ratioP2;P2;SDS_P1;SDS_P2;PMS_P1;PMS_P2;Temp;Humidity;BMP_temperature;BMP_pressure;BME280_temperature;BME280_humidity;BME280_pressure;Samples;Min_cycle;Max_cycle;Signal;HPM_P1;HPM_P2
2022/03/11 05:30:43;;;;;;;;;16.25;13.00;;;;;12.00;53.44;100642.66;5050870;27;46638;-72
2022/03/11 05:33:09;;;;;;;;;14.75;11.75;;;;;11.98;53.97;100641.88;5036386;28;45538;-73
2022/03/11 05:35:34;;;;;;;;;14.50;13.75;;;;;12.00;53.92;100634.59;5036539;28;45263;-73
2022/03/11 05:38:00;;;;;;;;;12.00;11.00;;;;;11.99;53.41;100625.66;5036541;28;45845;-72
2022/03/11 05:40:26;;;;;;;;;13.75;11.50;;;;;11.98;53.72;100623.06;5036517;28;45328;-73
2022/03/11 05:42:52;;;;;;;;;13.25;10.25;;;;;12.07;53.35;100631.50;5036085;28;45491;-74
2022/03/11 05:45:17;;;;;;;;;9.75;9.75;;;;;12.06;53.40;100628.91;5036454;28;45467;-72
2022/03/11 05:47:43;;;;;;;;;9.25;8.25;;;;;12.05;53.73;100619.97;5036174;28;45517;-73
2022/03/11 05:50:08;;;;;;;;;13.25;10.50;;;;;12.04;53.42;100622.72;5036133;28;45382;-74
2022/03/11 05:52:41;;;;;;;;;12.25;11.00;;;;;12.10;53.48;100625.09;5035987;28;46446;-71
2022/03/11 05:55:08;;;;;;;;;15.00;12.25;;;;;12.07;53.53;100615.38;5036497;28;45481;-72
2022/03/11 05:57:34;;;;;;;;;14.50;11.25;;;;;12.08;53.45;100613.53;5035424;28;45383;-72
2022/03/11 06:00:00;;;;;;;;;19.75;12.25;;;;;12.13;53.72;100631.16;5036297;28;45414;-72
2022/03/11 06:02:26;;;;;;;;;16.50;12.50;;;;;12.10;53.38;100627.78;5035674;28;46199;-73
2022/03/11 06:04:51;;;;;;;;;11.50;10.25;;;;;12.09;53.25;100620.66;5035847;28;45368;-71
2022/03/11 06:07:17;;;;;;;;;14.50;11.75;;;;;12.13;53.70;100628.47;5035622;28;45547;-73
2022/03/11 06:09:42;;;;;;;;;14.75;13.00;;;;;12.14;53.63;100640.09;5036152;28;45353;-73
2022/03/11 06:12:08;;;;;;;;;13.75;11.00;;;;;12.14;53.21;100626.66;5035500;28;45924;-72
2022/03/11 06:14:33;;;;;;;;;17.50;12.50;;;;;12.15;53.65;100639.16;5042160;28;45332;-73
2022/03/11 06:16:59;;;;;;;;;12.75;12.75;;;;;12.11;53.22;100635.75;5035771;28;45326;-71
2022/03/11 06:19:24;;;;;;;;;12.50;9.25;;;;;12.13;53.53;100633.00;5036575;28;45295;-75
2022/03/11 06:21:50;;;;;;;;;9.50;9.50;;;;;12.11;53.60;100629.50;5035988;28;46569;-75
2022/03/11 06:24:15;;;;;;;;;15.75;11.25;;;;;12.08;53.63;100630.53;5037371;28;45292;-77
2022/03/11 06:26:41;;;;;;;;;10.00;10.00;;;;;12.06;53.29;100623.53;5036588;28;45229;-80
2022/03/11 06:29:07;;;;;;;;;10.75;9.75;;;;;12.10;53.92;100625.94;5037722;28;45245;-73
2022/03/11 06:31:32;;;;;;;;;15.50;11.00;;;;;12.04;53.88;100617.38;5035293;28;46912;-78
2022/03/11 06:33:59;;;;;;;;;15.00;11.75;;;;;12.03;54.02;100618.31;5035549;28;45386;-77
2022/03/11 06:36:25;;;;;;;;;15.00;13.00;;;;;12.05;53.42;100617.28;5035710;28;45250;-78
2022/03/11 06:38:50;;;;;;;;;12.50;12.50;;;;;12.03;53.72;100621.00;5035937;28;45502;-74
2022/03/11 06:41:17;;;;;;;;;10.75;10.75;;;;;12.01;53.83;100617.50;5033491;28;47009;-72
2022/03/11 06:43:42;;;;;;;;;11.00;9.50;;;;;12.06;54.04;100620.84;5034739;28;45398;-71
2022/03/11 06:46:08;;;;;;;;;13.25;11.50;;;;;11.98;53.60;100612.31;5035455;28;45213;-77
2022/03/11 06:48:34;;;;;;;;;9.75;7.00;;;;;12.02;53.75;100611.19;5035418;28;45267;-77
2022/03/11 06:51:04;;;;;;;;;9.50;9.50;;;;;12.03;54.16;100619.19;5036237;28;46698;-73
2022/03/11 06:53:30;;;;;;;;;10.75;10.75;;;;;11.87;54.20;100585.16;5035455;28;45340;-76
2022/03/11 06:55:56;;;;;;;;;10.25;9.00;;;;;11.94;54.17;100592.81;5035148;28;45566;-79
2022/03/11 06:58:21;;;;;;;;;12.25;10.25;;;;;12.08;54.41;100600.09;5035647;28;45538;-76
2022/03/11 07:00:47;;;;;;;;;12.75;11.00;;;;;12.22;53.75;100615.50;5035159;28;46543;-78
2022/03/11 07:03:12;;;;;;;;;12.50;9.00;;;;;12.22;53.57;100604.75;5033738;28;46023;-76
2022/03/11 07:05:37;;;;;;;;;11.25;11.00;;;;;12.28;53.15;100613.34;5034961;28;45567;-73
2022/03/11 07:08:03;;;;;;;;;8.75;8.75;;;;;12.30;53.58;100610.56;5035103;28;45590;-75
2022/03/11 07:10:28;;;;;;;;;12.75;11.00;;;;;12.31;53.68;100615.00;5034538;28;46025;-74
2022/03/11 07:12:54;;;;;;;;;12.75;11.00;;;;;12.30;53.74;100614.13;5039205;28;45551;-71
2022/03/11 07:15:19;;;;;;;;;11.00;10.00;;;;;12.31;53.56;100613.19;5036287;28;45415;-73
2022/03/11 07:17:46;;;;;;;;;7.75;6.75;;;;;12.31;53.14;100606.94;5033934;28;45572;-70
2022/03/11 07:20:11;;;;;;;;;11.75;11.75;;;;;12.34;53.42;100596.00;5034184;28;45510;-74
2022/03/11 07:22:37;;;;;;;;;11.25;10.00;;;;;12.36;53.17;100603.03;5034197;28;45382;-74
2022/03/11 07:25:03;;;;;;;;;12.50;9.00;;;;;12.42;53.20;100594.59;5034154;28;45341;-73
2022/03/11 07:27:29;;;;;;;;;8.00;7.00;;;;;12.43;52.87;100593.66;5033668;28;45446;-75
2022/03/11 07:29:56;;;;;;;;;7.75;6.75;;;;;12.41;53.09;100583.97;5034322;28;45473;-75
2022/03/11 07:32:26;;;;;;;;;11.75;9.75;;;;;12.46;52.85;100593.50;5034034;28;45457;-73
2022/03/11 07:34:51;;;;;;;;;7.25;7.25;;;;;12.45;52.90;100590.88;5034298;28;45471;-73
2022/03/11 07:37:17;;;;;;;;;11.50;8.75;;;;;12.41;52.96;100594.72;5034494;28;45255;-73
2022/03/11 07:39:42;;;;;;;;;9.50;9.50;;;;;12.38;53.01;100586.81;5032248;28;47119;-72
2022/03/11 07:42:08;;;;;;;;;9.25;9.00;;;;;12.35;53.34;100576.22;5033310;28;45371;-73
2022/03/11 07:44:34;;;;;;;;;11.25;8.00;;;;;12.37;53.47;100580.56;5033158;28;45404;-71
2022/03/11 07:47:00;;;;;;;;;9.50;7.50;;;;;12.34;53.22;100585.22;5028772;28;45903;-72
2022/03/11 07:49:27;;;;;;;;;10.75;9.50;;;;;12.26;53.25;100561.47;5030757;28;45944;-73
2022/03/11 07:51:53;;;;;;;;;9.25;7.25;;;;;12.32;53.38;100576.41;5037300;28;45484;-73
2022/03/11 07:54:18;;;;;;;;;9.00;7.00;;;;;12.36;53.25;100573.44;5032627;28;45522;-75
2022/03/11 07:56:45;;;;;;;;;8.75;8.50;;;;;12.38;53.61;100570.69;5033633;28;45518;-74
2022/03/11 07:59:10;;;;;;;;;8.50;8.50;;;;;12.45;52.91;100564.00;5031639;28;45522;-74
2022/03/11 08:01:37;;;;;;;;;11.50;10.25;;;;;12.42;53.17;100553.41;5029519;28;45390;-73
2022/03/11 08:04:04;;;;;;;;;9.00;6.75;;;;;12.49;53.28;100562.88;5030424;28;45783;-73
2022/03/11 08:06:30;;;;;;;;;8.25;8.25;;;;;12.55;53.15;100553.59;5031727;28;45425;-73
2022/03/11 08:08:56;;;;;;;;;8.50;8.00;;;;;12.61;52.73;100562.19;5028477;28;45637;-76
2022/03/11 08:11:22;;;;;;;;;5.75;5.00;;;;;12.67;52.90;100556.47;5031270;28;45669;-74
2022/03/11 08:13:48;;;;;;;;;9.50;6.50;;;;;12.69;52.47;100554.53;5041903;28;45656;-76
2022/03/11 08:16:13;;;;;;;;;10.00;8.00;;;;;12.73;51.94;100545.34;5029711;28;45573;-74
2022/03/11 08:18:38;;;;;;;;;12.00;8.25;;;;;12.81;52.14;100561.91;5031859;28;45911;-73
2022/03/11 08:21:04;;;;;;;;;8.25;7.00;;;;;12.82;52.57;100549.31;5028604;28;45518;-72
2022/03/11 08:23:30;;;;;;;;;8.50;7.00;;;;;12.90;51.82;100549.75;5031933;28;45439;-73
2022/03/11 08:25:56;;;;;;;;;9.75;6.00;;;;;12.96;51.76;100556.56;5030441;28;46191;-73
2022/03/11 08:28:23;;;;;;;;;10.50;8.00;;;;;12.97;51.48;100536.78;5027429;28;47342;-73
2022/03/11 08:30:49;;;;;;;;;8.50;6.75;;;;;12.96;51.97;100532.34;5028658;28;45946;-72
2022/03/11 08:33:20;;;;;;;;;5.75;5.75;;;;;13.05;51.37;100526.44;5033031;28;45429;-73
2022/03/11 08:35:49;;;;;;;;;9.00;7.00;;;;;13.03;51.73;100525.66;5027839;28;46790;-73
2022/03/11 08:38:15;;;;;;;;;5.00;5.00;;;;;13.06;51.35;100526.34;5053374;28;46360;-72
2022/03/11 08:40:41;;;;;;;;;5.75;4.50;;;;;13.06;51.69;100518.28;5052880;28;45486;-72
2022/03/11 08:43:07;;;;;;;;;4.50;3.75;;;;;13.13;51.38;100516.97;5053358;28;45565;-74
2022/03/11 08:45:33;;;;;;;;;4.50;4.50;;;;;13.19;50.83;100507.66;5051679;28;45570;-77
2022/03/11 08:47:59;;;;;;;;;9.00;5.00;;;;;13.24;50.73;100508.25;5050309;28;45625;-73
2022/03/11 08:50:25;;;;;;;;;5.00;5.00;;;;;13.18;51.29;100500.56;5052995;28;45459;-72
2022/03/11 08:52:52;;;;;;;;;3.50;3.50;;;;;13.27;50.39;100509.91;5053336;28;45512;-74
2022/03/11 08:55:17;;;;;;;;;4.00;4.00;;;;;13.17;50.86;100505.09;5051926;28;45523;-74
2022/03/11 08:57:49;;;;;;;;;5.25;5.25;;;;;13.18;50.74;100522.94;5051625;28;46457;-73
2022/03/11 09:00:15;;;;;;;;;5.50;4.25;;;;;13.15;51.07;100498.91;5030244;28;45663;-73
2022/03/11 09:02:40;;;;;;;;;3.25;2.75;;;;;13.27;50.82;100504.53;5049547;28;45518;-73
2022/03/11 09:05:07;;;;;;;;;5.50;4.00;;;;;13.25;50.43;100502.78;5051774;28;45787;-74
2022/03/11 09:07:32;;;;;;;;;4.00;4.00;;;;;13.20;50.90;100494.13;5055173;28;47244;-74
2022/03/11 09:10:05;;;;;;;;;4.00;3.00;;;;;13.19;51.16;100497.75;5055352;28;45413;-75
2022/03/11 09:12:30;;;;;;;;;4.50;4.00;;;;;13.21;50.92;100489.59;5054834;28;45308;-74
2022/03/11 09:14:56;;;;;;;;;4.25;4.25;;;;;13.22;50.57;100489.50;5050661;28;45779;-75
2022/03/11 09:17:21;;;;;;;;;2.75;2.75;;;;;12.87;50.85;100434.22;5054778;28;45965;-74
2022/03/11 09:19:47;;;;;;;;;3.00;3.00;;;;;13.27;50.56;100490.09;5053141;28;45557;-74
2022/03/11 09:22:13;;;;;;;;;4.25;3.00;;;;;13.32;50.41;100499.72;5055409;28;45643;-74
2022/03/11 09:24:41;;;;;;;;;2.50;2.50;;;;;13.32;50.29;100487.13;5053988;28;45450;-72
2022/03/11 09:27:09;;;;;;;;;4.00;3.00;;;;;13.46;50.12;100491.66;5054911;28;45412;-73
2022/03/11 09:29:35;;;;;;;;;4.00;4.00;;;;;13.58;49.98;100502.53;5055254;28;45239;-74
2022/03/11 09:32:00;;;;;;;;;3.75;3.75;;;;;13.56;50.22;100496.38;5054776;28;45541;-73
2022/03/11 09:34:26;;;;;;;;;3.00;3.00;;;;;13.64;49.77;100498.59;5053689;28;45705;-74
2022/03/11 09:36:52;;;;;;;;;2.00;2.00;;;;;13.73;49.90;100506.09;5053984;28;45491;-74
2022/03/11 09:39:19;;;;;;;;;2.00;2.00;;;;;13.86;49.36;100490.03;5055161;28;45358;-72
2022/03/11 09:41:46;;;;;;;;;4.00;3.50;;;;;13.93;49.22;100502.16;5054368;28;45359;-73
2022/03/11 09:44:13;;;;;;;;;4.25;2.25;;;;;13.92;49.27;100484.25;5053845;28;45441;-73
2022/03/11 09:46:40;;;;;;;;;3.00;3.00;;;;;14.06;48.44;100495.00;5053810;28;45402;-74
2022/03/11 09:49:06;;;;;;;;;2.25;2.25;;;;;13.94;49.04;100485.91;5053468;28;45461;-74
2022/03/11 09:51:34;;;;;;;;;2.50;2.50;;;;;13.92;49.25;100473.47;5054032;28;45313;-73
2022/03/11 09:53:59;;;;;;;;;3.50;2.25;;;;;13.93;49.12;100483.28;5053982;28;45778;-74
2022/03/11 09:56:25;;;;;;;;;2.00;2.00;;;;;13.95;49.24;100490.28;5045668;28;46117;-73
2022/03/11 09:58:50;;;;;;;;;3.00;2.00;;;;;13.94;49.11;100474.25;5054100;28;45509;-78
2022/03/11 10:01:16;;;;;;;;;3.00;3.00;;;;;13.93;49.08;100477.91;5035419;28;45408;-76
2022/03/11 10:03:41;;;;;;;;;3.75;2.25;;;;;13.87;48.77;100457.59;5032677;28;45438;-76
2022/03/11 10:06:07;;;;;;;;;3.50;2.50;;;;;13.90;49.28;100443.06;5052939;28;45912;-75
2022/03/11 10:08:38;;;;;;;;;6.00;4.00;;;;;14.02;49.59;100423.41;5034719;28;45531;-76
2022/03/11 10:11:24;;;;;;;;;3.50;2.25;;;;;14.10;50.69;100439.94;5035635;28;45470;-74
2022/03/11 10:13:52;;;;;;;;;4.00;4.00;;;;;14.16;50.76;100455.72;5053015;28;45381;-75
2022/03/11 10:16:27;;;;;;;;;2.50;2.50;;;;;14.23;50.05;100461.56;5053567;28;45460;-74
2022/03/11 10:18:57;;;;;;;;;1.25;1.25;;;;;14.14;50.08;100427.13;5052568;28;45514;-73
2022/03/11 10:21:37;;;;;;;;;7.25;4.00;;;;;14.29;49.92;100462.03;5032371;28;45305;-73
2022/03/11 10:24:05;;;;;;;;;2.50;2.25;;;;;14.30;49.74;100441.31;5040572;28;45701;-74
2022/03/11 10:26:32;;;;;;;;;4.75;3.00;;;;;14.53;50.15;100440.69;5053094;28;45309;-78
2022/03/11 10:28:58;;;;;;;;;3.00;2.00;;;;;14.54;49.62;100441.56;5053859;28;45383;-73
2022/03/11 10:31:34;;;;;;;;;4.75;3.00;;;;;14.56;49.65;100431.53;5053374;28;45740;-74
2022/03/11 10:34:15;;;;;;;;;5.75;4.00;;;;;14.63;49.41;100447.19;5041681;28;45558;-75
2022/03/11 10:36:47;;;;;;;;;2.25;1.75;;;;;14.60;49.01;100468.13;5053428;28;46000;-72
2022/03/11 10:39:21;;;;;;;;;3.00;3.00;;;;;14.49;49.70;100451.78;5054174;28;45465;-73
2022/03/11 10:41:49;;;;;;;;;3.00;3.00;;;;;14.54;49.67;100466.72;5053788;28;45530;-74
2022/03/11 10:44:18;;;;;;;;;2.00;2.00;;;;;14.51;50.18;100468.75;5053769;28;45578;-76
2022/03/11 10:46:43;;;;;;;;;5.75;4.25;;;;;14.53;49.79;100483.88;5053512;28;45438;-73
2022/03/11 10:49:09;;;;;;;;;4.75;3.00;;;;;14.35;49.81;100412.22;5053339;28;45513;-74
2022/03/11 10:51:38;;;;;;;;;4.00;4.00;;;;;14.43;51.31;100401.81;5053105;28;45460;-75
2022/03/11 10:54:10;;;;;;;;;7.25;7.25;;;;;14.59;51.11;100469.09;5053192;28;45518;-75
2022/03/11 10:56:39;;;;;;;;;3.75;3.75;;;;;14.39;52.13;100457.78;5052831;28;45987;-75
2022/03/11 10:59:28;;;;;;;;;5.50;5.50;;;;;14.49;53.01;100498.50;5053300;28;45688;-75
2022/03/11 11:01:56;;;;;;;;;5.25;4.75;;;;;14.24;54.30;100477.66;5053355;28;45970;-73
2022/03/11 11:04:21;;;;;;;;;4.00;4.00;;;;;14.27;53.78;100500.84;5031896;28;45506;-75
2022/03/11 11:06:48;;;;;;;;;4.00;4.00;;;;;14.29;54.31;100490.84;5047676;28;46368;-75
2022/03/11 11:09:17;;;;;;;;;4.00;4.00;;;;;14.26;54.53;100477.56;5053096;28;45448;-75
2022/03/11 11:11:42;;;;;;;;;4.50;4.50;;;;;14.27;54.74;100471.19;5052547;28;45664;-72
2022/03/11 11:14:10;;;;;;;;;3.25;3.25;;;;;14.29;55.04;100485.44;5052534;28;45399;-74
2022/03/11 11:16:40;;;;;;;;;5.50;5.00;;;;;14.29;54.45;100482.75;5042110;28;46150;-74
2022/03/11 11:19:19;;;;;;;;;3.75;3.75;;;;;14.30;55.02;100476.38;5052760;28;45606;-74
2022/03/11 11:21:47;;;;;;;;;4.00;4.00;;;;;14.30;54.84;100481.75;5052891;28;45275;-73
2022/03/11 11:24:15;;;;;;;;;5.25;5.25;;;;;14.29;55.40;100471.97;5053243;28;45473;-71
2022/03/11 11:26:45;;;;;;;;;6.00;5.00;;;;;14.33;56.53;100462.69;5051922;28;45572;-73
2022/03/11 11:29:11;;;;;;;;;7.00;5.25;;;;;14.27;54.77;100461.28;5052736;28;45370;-75
2022/03/11 11:31:41;;;;;;;;;4.50;4.50;;;;;14.28;54.45;100483.72;5052259;28;46609;-73
2022/03/11 11:34:33;;;;;;;;;4.50;4.50;;;;;14.30;54.35;100496.13;5053148;28;45329;-74
2022/03/11 11:36:59;;;;;;;;;4.50;4.50;;;;;14.31;53.77;100514.03;5052435;28;46164;-72
2022/03/11 11:39:27;;;;;;;;;5.00;3.50;;;;;14.28;54.27;100519.63;5052814;28;45347;-74
2022/03/11 11:41:59;;;;;;;;;5.00;5.00;;;;;14.28;53.61;100524.16;5052627;28;45320;-73
2022/03/11 11:44:34;;;;;;;;;5.50;5.00;;;;;14.26;53.77;100542.25;5052793;28;45400;-74
2022/03/11 11:47:11;;;;;;;;;5.00;4.75;;;;;14.25;54.32;100540.53;5052449;28;45853;-73
2022/03/11 11:49:49;;;;;;;;;4.00;3.25;;;;;14.28;54.44;100543.03;5052321;28;45333;-73
2022/03/11 11:52:37;;;;;;;;;4.00;4.00;;;;;14.25;55.43;100532.44;5052489;28;45461;-72
2022/03/11 11:55:17;;;;;;;;;6.00;6.00;;;;;14.25;55.63;100543.22;5052797;28;45416;-72
2022/03/11 11:57:46;;;;;;;;;5.00;5.00;;;;;14.27;55.57;100526.00;5052166;28;46890;-73
2022/03/11 12:00:26;;;;;;;;;6.75;5.50;;;;;14.27;56.52;100530.53;5053182;28;45323;-73
2022/03/11 12:02:51;;;;;;;;;5.75;5.75;;;;;14.18;55.85;100504.16;5052383;28;45466;-74
2022/03/11 12:05:42;;;;;;;;;6.25;6.00;;;;;14.31;55.81;100522.13;5052478;28;45307;-70
2022/03/11 12:08:09;;;;;;;;;5.00;4.00;;;;;14.34;55.50;100508.44;5051175;28;46172;-71
2022/03/11 12:10:34;;;;;;;;;4.25;4.25;;;;;14.43;56.12;100515.09;5052188;28;45406;-71
2022/03/11 12:13:02;;;;;;;;;5.00;5.00;;;;;14.48;55.87;100504.88;5052181;28;45406;-73
2022/03/11 12:15:32;;;;;;;;;6.25;6.25;;;;;14.48;55.82;100485.97;5052552;28;45328;-78
2022/03/11 12:18:03;;;;;;;;;8.00;6.50;;;;;14.59;54.75;100496.94;5052628;28;45497;-77
2022/03/11 12:20:31;;;;;;;;;6.00;6.00;;;;;14.60;55.00;100498.66;5052876;28;45436;-75
2022/03/11 12:22:57;;;;;;;;;9.75;7.00;;;;;14.63;55.02;100498.44;5052920;28;45743;-75
2022/03/11 12:25:34;;;;;;;;;6.50;5.25;;;;;14.62;55.08;100499.44;5051912;28;46080;-79
2022/03/11 12:28:12;;;;;;;;;6.00;4.00;;;;;14.60;54.69;100495.09;5052443;28;46207;-72
2022/03/11 12:30:48;;;;;;;;;7.50;6.00;;;;;14.56;54.87;100488.16;5052439;28;45465;-74
2022/03/11 12:33:23;;;;;;;;;6.50;6.00;;;;;14.58;55.38;100497.91;5051868;28;45540;-76
2022/03/11 12:35:52;;;;;;;;;8.50;5.25;;;;;14.59;55.83;100490.69;5051908;28;45608;-76
2022/03/11 12:38:21;;;;;;;;;4.00;4.00;;;;;14.60;55.33;100500.50;5052124;28;46162;-75
2022/03/11 12:40:48;;;;;;;;;4.50;4.50;;;;;14.57;55.20;100498.88;5051276;28;45449;-76
2022/03/11 12:43:15;;;;;;;;;8.25;5.25;;;;;14.44;55.41;100479.06;5055719;28;45361;-75
2022/03/11 12:45:45;;;;;;;;;5.75;5.75;;;;;14.48;55.89;100504.00;5055724;28;45420;-75
2022/03/11 12:48:15;;;;;;;;;5.00;5.00;;;;;14.42;55.79;100501.72;5050193;28;45859;-74
2022/03/11 12:50:43;;;;;;;;;8.75;5.00;;;;;14.43;56.44;100498.91;5048378;28;45568;-75
2022/03/11 12:53:10;;;;;;;;;5.75;5.75;;;;;14.31;57.29;100488.88;5055000;28;45580;-75
2022/03/11 12:55:55;;;;;;;;;6.00;6.00;;;;;14.29;56.81;100482.75;5054617;28;45348;-76
2022/03/11 12:58:31;;;;;;;;;6.00;6.00;;;;;14.36;57.37;100479.56;5053579;28;45610;-76
2022/03/11 13:01:00;;;;;;;;;10.00;7.50;;;;;14.57;57.65;100473.72;5055437;28;45355;-77
2022/03/11 13:03:31;;;;;;;;;5.75;4.75;;;;;14.94;56.17;100474.81;5055103;28;45337;-76
2022/03/11 13:05:58;;;;;;;;;9.50;6.00;;;;;15.25;55.80;100462.75;5055552;28;45958;-76
2022/03/11 13:08:24;;;;;;;;;12.00;8.25;;;;;15.34;54.51;100444.06;5055280;28;45347;-77
2022/03/11 13:10:51;;;;;;;;;7.50;6.25;;;;;15.72;53.82;100473.81;5055010;28;45397;-75
2022/03/11 13:13:17;;;;;;;;;6.50;6.50;;;;;15.85;53.58;100458.44;5055193;28;45506;-77
2022/03/11 13:15:46;;;;;;;;;7.75;5.75;;;;;15.83;52.33;100462.22;5053746;28;46125;-76
2022/03/11 13:18:20;;;;;;;;;8.50;6.00;;;;;15.89;53.13;100457.25;5054665;28;45842;-77
2022/03/11 13:20:58;;;;;;;;;10.25;8.25;;;;;15.88;52.55;100454.66;5055395;28;45389;-75
2022/03/11 13:23:35;;;;;;;;;7.00;7.00;;;;;15.84;52.60;100445.03;5054644;28;45344;-74
2022/03/11 13:26:08;;;;;;;;;5.25;5.00;;;;;15.84;52.91;100445.03;5054640;28;45470;-73
2022/03/11 13:28:36;;;;;;;;;6.25;6.25;;;;;15.71;52.90;100445.06;5054572;28;46175;-72
2022/03/11 13:31:25;;;;;;;;;6.25;6.25;;;;;15.70;53.04;100439.75;5055014;28;45865;-72
2022/03/11 13:33:56;;;;;;;;;7.25;7.25;;;;;15.67;52.30;100450.78;5054566;28;45265;-72
2022/03/11 13:36:40;;;;;;;;;9.75;6.25;;;;;15.59;52.79;100445.06;5054579;28;45703;-73
2022/03/11 13:39:16;;;;;;;;;5.50;4.75;;;;;15.50;52.63;100427.63;5054433;28;45473;-72
2022/03/11 13:41:52;;;;;;;;;7.00;7.00;;;;;15.55;53.07;100430.94;5054036;28;45544;-73
2022/03/11 13:44:33;;;;;;;;;9.75;8.75;;;;;15.52;52.87;100429.25;5054984;28;45343;-72
2022/03/11 13:47:02;;;;;;;;;6.00;6.00;;;;;15.51;52.40;100434.78;5054707;28;46396;-73
2022/03/11 13:49:45;;;;;;;;;7.00;7.00;;;;;15.38;52.48;100437.50;5034976;28;47650;-74
2022/03/11 13:52:17;;;;;;;;;6.75;6.75;;;;;15.40;52.56;100430.13;5031908;28;45637;-73
2022/03/11 13:54:44;;;;;;;;;7.25;7.25;;;;;15.42;52.50;100430.03;5053950;28;45485;-73
2022/03/11 13:57:20;;;;;;;;;6.25;5.25;;;;;15.42;52.58;100430.03;5054037;28;45429;-73
2022/03/11 13:59:59;;;;;;;;;5.00;5.00;;;;;15.40;53.06;100427.41;5041926;28;46483;-73
2022/03/11 14:02:30;;;;;;;;;7.00;6.00;;;;;15.35;53.11;100424.19;5053953;28;45610;-73
2022/03/11 14:05:09;;;;;;;;;8.00;8.00;;;;;15.36;53.44;100420.53;5054097;28;46509;-74
2022/03/11 14:07:35;;;;;;;;;9.00;9.00;;;;;15.31;53.76;100432.63;5052190;28;45486;-73
2022/03/11 14:10:01;;;;;;;;;8.25;7.25;;;;;15.26;53.92;100422.13;5054140;28;45513;-73
2022/03/11 14:12:28;;;;;;;;;7.00;7.00;;;;;15.31;53.92;100433.47;5053587;28;45633;-73
2022/03/11 14:15:11;;;;;;;;;8.50;7.00;;;;;15.19;54.37;100415.44;5054722;28;45624;-73
2022/03/11 14:17:37;;;;;;;;;8.50;5.75;;;;;15.28;55.44;100432.84;5053811;28;45370;-73
2022/03/11 14:20:05;;;;;;;;;7.50;7.00;;;;;15.24;55.73;100428.63;5052524;28;46982;-73
2022/03/11 14:22:32;;;;;;;;;6.25;6.25;;;;;15.23;55.12;100429.59;5053774;28;45461;-73
2022/03/11 14:24:57;;;;;;;;;8.75;7.75;;;;;15.04;55.73;100409.28;5054234;28;45499;-74
2022/03/11 14:27:22;;;;;;;;;8.00;6.25;;;;;15.01;56.15;100411.31;5053292;28;45498;-73
2022/03/11 14:29:48;;;;;;;;;7.00;7.00;;;;;15.08;56.18;100432.38;5054291;28;46066;-72
2022/03/11 14:32:13;;;;;;;;;8.25;6.75;;;;;15.04;56.56;100432.72;5053240;28;45568;-73
2022/03/11 14:34:39;;;;;;;;;6.25;6.00;;;;;14.99;56.78;100426.75;5053968;28;45356;-72
2022/03/11 14:37:06;;;;;;;;;8.75;8.75;;;;;14.89;56.54;100421.13;5053317;28;45385;-71
2022/03/11 14:39:32;;;;;;;;;6.25;6.25;;;;;14.94;57.03;100437.03;5054022;28;46256;-73
2022/03/11 14:41:57;;;;;;;;;9.25;9.25;;;;;14.94;57.75;100431.63;5054004;28;45338;-72
2022/03/11 14:44:23;;;;;;;;;9.25;7.75;;;;;14.81;57.28;100434.28;5052980;28;45730;-74
2022/03/11 14:46:49;;;;;;;;;7.00;6.00;;;;;14.73;58.97;100460.94;5035396;28;46161;-72
2022/03/11 14:49:15;;;;;;;;;9.50;9.50;;;;;14.67;59.82;100475.72;5052815;28;46004;-71
2022/03/11 14:51:41;;;;;;;;;4.50;4.50;;;;;14.58;57.57;100495.22;5053798;28;45474;-74
2022/03/11 14:54:07;;;;;;;;;5.00;5.00;;;;;14.29;58.24;100491.69;5053073;28;45387;-72
2022/03/11 14:56:34;;;;;;;;;4.75;2.00;;;;;14.14;58.75;100502.59;5053791;28;45433;-72
2022/03/11 14:58:59;;;;;;;;;2.00;2.00;;;;;13.84;59.25;100495.53;5052336;28;46635;-72
2022/03/11 15:01:25;;;;;;;;;1.75;1.00;;;;;13.84;60.49;100494.66;5053783;28;45315;-72
2022/03/11 15:03:51;;;;;;;;;1.25;1.25;;;;;13.63;60.12;100504.94;5052290;28;45556;-73
2022/03/11 15:06:17;;;;;;;;;0.75;0.75;;;;;13.51;61.69;100509.28;5053682;28;45347;-73
2022/03/11 15:08:44;;;;;;;;;1.00;1.00;;;;;13.45;61.64;100506.06;5052857;28;46086;-72
2022/03/11 15:11:09;;;;;;;;;1.50;1.00;;;;;13.36;62.46;100512.88;5053426;28;45373;-73
2022/03/11 15:13:36;;;;;;;;;1.00;1.00;;;;;13.29;62.09;100492.69;5052745;28;45434;-72
2022/03/11 15:16:01;;;;;;;;;0.00;0.00;;;;;13.23;61.77;100510.09;5053311;28;45363;-73
2022/03/11 15:18:26;;;;;;;;;2.00;1.00;;;;;13.15;62.00;100487.28;5052566;28;46017;-72
2022/03/11 15:20:52;;;;;;;;;0.25;0.25;;;;;13.19;62.56;100492.38;5053211;28;45410;-72
2022/03/11 15:23:17;;;;;;;;;1.00;1.00;;;;;13.17;62.59;100483.56;5052311;28;45702;-72
2022/03/11 15:25:46;;;;;;;;;1.00;1.00;;;;;13.15;62.22;100474.69;5052709;28;45388;-74
2022/03/11 15:28:11;;;;;;;;;1.00;1.00;;;;;13.08;61.61;100475.13;5053218;28;45609;-72
2022/03/11 15:30:37;;;;;;;;;1.00;1.00;;;;;12.94;61.83;100486.69;5035669;28;45342;-72
2022/03/11 15:33:02;;;;;;;;;0.25;0.25;;;;;12.95;60.48;100477.69;5052536;28;45833;-71
2022/03/11 15:35:28;;;;;;;;;1.50;0.25;;;;;12.87;61.70;100488.03;5052729;28;45602;-72
2022/03/11 15:37:54;;;;;;;;;1.00;1.00;;;;;12.73;61.36;100493.38;5051775;28;45994;-71
2022/03/11 15:40:22;;;;;;;;;1.00;0.00;;;;;12.65;61.83;100485.75;5052969;28;46133;-71
2022/03/11 15:42:52;;;;;;;;;1.00;1.00;;;;;12.58;61.26;100480.81;5034640;28;45423;-73
2022/03/11 15:45:20;;;;;;;;;0.50;0.50;;;;;12.67;62.33;100496.44;5052931;28;46240;-72
2022/03/11 15:47:46;;;;;;;;;0.00;0.00;;;;;12.59;61.99;100494.16;5052468;28;46010;-72
2022/03/11 15:50:12;;;;;;;;;1.00;1.00;;;;;12.48;63.65;100483.19;5053433;28;45341;-72
2022/03/11 15:52:37;;;;;;;;;0.00;0.00;;;;;12.43;63.74;100502.25;5052747;28;45613;-71
2022/03/11 15:55:21;;;;;;;;;2.00;1.00;;;;;12.43;65.15;100493.31;5051896;28;45348;-73
2022/03/11 15:57:50;;;;;;;;;1.00;1.00;;;;;12.26;65.68;100479.97;5051688;28;45545;-72
2022/03/11 16:00:16;;;;;;;;;1.00;1.00;;;;;12.28;66.05;100484.31;5053838;28;45466;-72
2022/03/11 16:02:43;;;;;;;;;1.75;1.00;;;;;12.24;66.58;100490.84;5054172;28;45297;-72
2022/03/11 16:05:10;;;;;;;;;1.50;0.50;;;;;12.25;67.23;100505.97;5053936;28;45682;-71
2022/03/11 16:07:38;;;;;;;;;2.00;1.00;;;;;12.20;67.03;100505.38;5052145;28;47804;-72
2022/03/11 16:10:09;;;;;;;;;0.00;0.00;;;;;12.15;68.13;100499.41;5053412;28;45390;-73
2022/03/11 16:12:36;;;;;;;;;1.00;1.00;;;;;12.03;67.63;100481.28;5053945;28;45531;-73
2022/03/11 16:15:03;;;;;;;;;1.00;1.00;;;;;12.12;67.03;100497.75;5053286;28;45387;-72
2022/03/11 16:17:29;;;;;;;;;2.00;1.00;;;;;12.16;66.78;100508.34;5035855;28;47898;-72
2022/03/11 16:19:54;;;;;;;;;1.50;1.00;;;;;12.16;67.69;100516.41;5053536;28;45374;-71
2022/03/11 16:22:20;;;;;;;;;1.25;1.25;;;;;12.11;68.12;100504.06;5051910;28;45292;-72
2022/03/11 16:24:48;;;;;;;;;0.50;0.50;;;;;12.10;68.01;100498.78;5051705;28;45453;-71
2022/03/11 16:27:13;;;;;;;;;3.75;2.00;;;;;12.14;68.01;100500.38;5051765;28;45548;-73
2022/03/11 16:29:39;;;;;;;;;1.25;1.00;;;;;12.19;67.69;100505.47;5051980;28;45592;-73
2022/03/11 16:32:04;;;;;;;;;3.00;1.00;;;;;12.15;67.72;100494.03;5052166;28;45475;-70
2022/03/11 16:34:31;;;;;;;;;1.00;1.00;;;;;12.18;67.13;100492.97;5051573;28;45351;-74
2022/03/11 16:36:56;;;;;;;;;2.00;0.75;;;;;12.34;67.36;100507.28;5038665;28;47234;-72
2022/03/11 16:39:22;;;;;;;;;5.00;1.00;;;;;12.41;67.02;100508.69;5048629;28;45439;-72
2022/03/11 16:41:47;;;;;;;;;1.00;1.00;;;;;12.45;67.51;100516.47;5043171;28;45320;-74
2022/03/11 16:44:13;;;;;;;;;3.00;2.00;;;;;12.49;66.59;100517.19;5051194;28;45944;-72
2022/03/11 16:46:39;;;;;;;;;3.00;2.00;;;;;12.55;66.65;100530.25;5051517;28;45426;-71
2022/03/11 16:49:05;;;;;;;;;4.50;1.75;;;;;12.41;66.98;100512.25;5029932;28;46083;-72
2022/03/11 16:51:31;;;;;;;;;2.00;2.00;;;;;12.61;66.33;100537.09;5052354;28;45396;-74
2022/03/11 16:53:56;;;;;;;;;3.00;2.00;;;;;12.51;66.78;100516.13;5052052;28;45344;-75
2022/03/11 16:56:22;;;;;;;;;3.00;3.00;;;;;12.63;66.76;100521.75;5038511;28;45746;-75